CheckWX is a tool to help pilots better visualize weather data.  It is not intended as a substitute for an official pre-flight weather briefing.

11:11:52 UTC

VDSV METAR
Sihanoukville International Airport
Sihanukville, Cambodia
Current

12 mins ago

VDSV 041100Z 24009KT 9999 SCT017 30/24 Q1010
Observed
Apr-4 @ 11:00 UTC
Wind
  • 240° at 9 KTS
Visibility
10,000+ meters
Flight Rules
VFR
Cloud Levels
  • Scattered at 1,700' AGL
Temperature
30°C / 86°F
Dewpoint
24°C / 75°F
Humidity
70%
Altimeter
29.82" Hg
Pressure
1009.92 hPa
Previous

42 mins ago

VDSV 041030Z 23009KT 9999 SCT017 31/24 Q1009
Observed
Apr-4 @ 10:30 UTC
Wind
  • 230° at 9 KTS
Visibility
10,000+ meters
Flight Rules
VFR
Cloud Levels
  • Scattered at 1,700' AGL
Temperature
31°C / 88°F
Dewpoint
24°C / 75°F
Humidity
66%
Altimeter
29.79" Hg
Pressure
1008.92 hPa
Previous

1 hour ago

VDSV 041000Z 25009KT 9999 SCT017 31/24 Q1009
Observed
Apr-4 @ 10:00 UTC
Wind
  • 250° at 9 KTS
Visibility
10,000+ meters
Flight Rules
VFR
Cloud Levels
  • Scattered at 1,700' AGL
Temperature
31°C / 88°F
Dewpoint
24°C / 75°F
Humidity
66%
Altimeter
29.79" Hg
Pressure
1008.92 hPa